Time;durP1;ratioP1;P1;durP2;ratioP2;P2;SDS_P1;SDS_P2;PMS_P1;PMS_P2;Temp;Humidity;BMP_temperature;BMP_pressure;BME280_temperature;BME280_humidity;BME280_pressure;Samples;Min_cycle;Max_cycle;Signal;HPM_P1;HPM_P2
2021/12/15 00:01:37;;;;;;;44.47;24.13;;;;;;;7.62;100.00;102338.41;5001900;28;20326;-55
2021/12/15 00:04:04;;;;;;;39.73;26.57;;;;;;;7.47;100.00;102340.44;5004419;28;20710;-53
2021/12/15 00:06:31;;;;;;;36.27;23.60;;;;;;;7.51;100.00;102338.81;5003234;28;20252;-56
2021/12/15 00:08:59;;;;;;;42.80;27.10;;;;;;;7.50;100.00;102340.53;5003065;28;20268;-54
2021/12/15 00:11:33;;;;;;;46.07;27.37;;;;;;;7.48;100.00;102331.78;5002538;28;20261;-56
2021/12/15 00:13:59;;;;;;;39.53;25.73;;;;;;;7.46;100.00;102325.59;5007930;28;20296;-54
2021/12/15 00:16:26;;;;;;;39.67;24.83;;;;;;;7.55;100.00;102328.56;5009393;28;20234;-54
2021/12/15 00:18:53;;;;;;;43.13;24.73;;;;;;;7.61;100.00;102331.38;4995438;28;20507;-54
2021/12/15 00:21:20;;;;;;;37.97;23.37;;;;;;;7.55;100.00;102340.75;5006740;28;20788;-55
2021/12/15 00:23:48;;;;;;;40.93;24.13;;;;;;;7.50;100.00;102337.03;5007031;28;20247;-56
2021/12/15 00:26:15;;;;;;;35.53;23.27;;;;;;;7.60;100.00;102327.00;5001394;28;20245;-54
2021/12/15 00:28:44;;;;;;;31.73;22.10;;;;;;;7.51;100.00;102331.91;4998697;28;20241;-54
2021/12/15 00:31:11;;;;;;;36.50;23.07;;;;;;;7.52;100.00;102328.44;4995242;28;20245;-54
2021/12/15 00:33:39;;;;;;;39.13;23.30;;;;;;;7.48;100.00;102328.28;5008265;28;21916;-57
2021/12/15 00:36:06;;;;;;;41.17;25.87;;;;;;;7.48;100.00;102330.91;4995476;28;20963;-55
2021/12/15 00:38:33;;;;;;;32.03;21.53;;;;;;;7.54;100.00;102325.88;5007435;28;20240;-53
2021/12/15 00:40:59;;;;;;;35.97;23.00;;;;;;;7.58;100.00;102328.69;5005843;28;20296;-54
2021/12/15 00:43:26;;;;;;;41.70;24.80;;;;;;;7.47;100.00;102329.09;4998771;28;20272;-56
2021/12/15 00:45:54;;;;;;;41.43;25.90;;;;;;;7.50;100.00;102331.81;4997309;28;20678;-54
2021/12/15 00:48:21;;;;;;;36.57;23.00;;;;;;;7.47;100.00;102326.47;5003583;28;21280;-54
2021/12/15 00:50:48;;;;;;;38.30;23.63;;;;;;;7.65;100.00;102322.84;5001527;28;20241;-54
2021/12/15 00:53:15;;;;;;;37.77;24.60;;;;;;;7.51;100.00;102336.19;5006331;28;20745;-55
2021/12/15 00:55:43;;;;;;;39.97;24.40;;;;;;;7.54;100.00;102341.53;4998581;28;20252;-55
2021/12/15 00:58:09;;;;;;;42.13;24.83;;;;;;;7.51;100.00;102337.13;5006646;28;20241;-55
2021/12/15 01:00:39;;;;;;;37.03;23.30;;;;;;;7.44;100.00;102345.56;5002222;28;20292;-55
2021/12/15 01:03:08;;;;;;;43.57;26.50;;;;;;;7.52;100.00;102346.72;4991730;28;20238;-55
2021/12/15 01:05:37;;;;;;;39.70;25.00;;;;;;;7.54;100.00;102352.88;4995497;28;20616;-55
2021/12/15 01:08:09;;;;;;;45.43;25.27;;;;;;;7.43;100.00;102351.59;5007469;28;20280;-52
2021/12/15 01:10:51;;;;;;;43.80;25.97;;;;;;;7.49;100.00;102353.56;4999466;28;20233;-54
2021/12/15 01:21:31;;;;;;;38.97;24.17;;;;;;;7.56;100.00;102356.47;4994296;28;20239;-54
2021/12/15 01:23:57;;;;;;;41.23;24.07;;;;;;;7.59;100.00;102359.19;5010622;28;20315;-53
2021/12/15 01:26:24;;;;;;;40.67;24.27;;;;;;;7.61;100.00;102361.84;5003487;28;20292;-54
2021/12/15 01:28:50;;;;;;;49.57;26.07;;;;;;;7.59;100.00;102360.91;5006637;28;20221;-55
2021/12/15 01:31:16;;;;;;;43.73;26.37;;;;;;;7.45;100.00;102364.75;5003697;28;20272;-56
2021/12/15 01:33:43;;;;;;;44.23;25.80;;;;;;;7.37;100.00;102362.72;5004677;28;20261;-56
2021/12/15 01:36:12;;;;;;;44.67;23.40;;;;;;;7.44;100.00;102369.09;5003636;28;20237;-53
2021/12/15 01:38:41;;;;;;;43.47;25.27;;;;;;;7.37;100.00;102369.66;5004363;28;20237;-56
2021/12/15 01:41:14;;;;;;;44.93;25.37;;;;;;;7.44;100.00;102360.31;5000351;28;20541;-54
2021/12/15 01:43:51;;;;;;;42.10;24.90;;;;;;;7.60;100.00;102367.91;5003852;28;21013;-54
2021/12/15 01:49:06;;;;;;;39.27;22.30;;;;;;;7.48;100.00;102352.69;5013999;28;20240;-56
2021/12/15 01:51:34;;;;;;;39.67;24.13;;;;;;;7.52;100.00;102358.91;5012707;28;20240;-55
2021/12/15 01:54:01;;;;;;;35.87;23.00;;;;;;;7.54;100.00;102352.00;5022248;28;20237;-58
2021/12/15 01:56:27;;;;;;;36.70;23.07;;;;;;;7.43;100.00;102354.22;5013168;28;20233;-54
2021/12/15 01:58:54;;;;;;;42.67;23.93;;;;;;;7.41;100.00;102361.13;5016776;28;20237;-54
2021/12/15 02:01:20;;;;;;;37.80;21.53;;;;;;;7.38;100.00;102356.66;5017032;28;20241;-54
2021/12/15 02:03:47;;;;;;;41.30;24.13;;;;;;;7.42;100.00;102357.66;5020210;28;20236;-55
2021/12/15 02:06:14;;;;;;;36.97;23.07;;;;;;;7.35;100.00;102361.75;5004515;28;20277;-55
2021/12/15 02:08:43;;;;;;;37.63;22.67;;;;;;;7.34;100.00;102359.09;5001940;28;20828;-53
2021/12/15 02:11:09;;;;;;;38.80;21.17;;;;;;;7.43;100.00;102348.09;5003263;28;20321;-53
2021/12/15 02:13:36;;;;;;;35.43;23.80;;;;;;;7.50;100.00;102350.09;5005820;28;20634;-54
2021/12/15 02:16:04;;;;;;;38.57;22.80;;;;;;;7.45;100.00;102346.44;5005380;28;20287;-55
2021/12/15 02:18:32;;;;;;;40.83;22.77;;;;;;;7.52;100.00;102344.13;5004226;28;20256;-53
2021/12/15 02:21:02;;;;;;;34.93;22.77;;;;;;;7.51;100.00;102355.41;4993943;28;20271;-54
2021/12/15 02:23:35;;;;;;;38.37;21.70;;;;;;;7.47;100.00;102345.66;5000306;28;20233;-55
2021/12/15 02:26:04;;;;;;;31.87;19.33;;;;;;;7.43;100.00;102351.59;5003370;28;20328;-59
2021/12/15 02:28:30;;;;;;;35.03;21.63;;;;;;;7.44;100.00;102347.25;5001668;28;20234;-53
2021/12/15 02:31:05;;;;;;;36.20;21.93;;;;;;;7.53;100.00;102345.88;4998218;28;20303;-54
2021/12/15 02:33:49;;;;;;;31.83;20.90;;;;;;;7.52;100.00;102345.84;4998848;28;20574;-54
2021/12/15 02:39:05;;;;;;;31.17;18.93;;;;;;;7.53;100.00;102353.72;4999585;28;20263;-53
2021/12/15 02:41:32;;;;;;;33.50;20.47;;;;;;;7.62;100.00;102348.84;4994627;28;20225;-52
2021/12/15 02:44:01;;;;;;;32.23;19.33;;;;;;;7.60;100.00;102350.50;5005778;28;20249;-55
2021/12/15 02:46:29;;;;;;;28.50;19.13;;;;;;;7.54;100.00;102358.13;4996113;28;20225;-54
2021/12/15 02:48:56;;;;;;;32.10;18.90;;;;;;;7.59;100.00;102356.59;4997313;28;20379;-56
2021/12/15 02:51:24;;;;;;;31.93;19.80;;;;;;;7.63;100.00;102363.69;4993322;28;22587;-56
2021/12/15 02:53:51;;;;;;;30.27;19.13;;;;;;;7.55;100.00;102359.91;5007050;28;20225;-53
2021/12/15 02:56:18;;;;;;;25.70;18.83;;;;;;;7.50;100.00;102365.78;4997478;28;20257;-57
2021/12/15 02:58:51;;;;;;;29.43;20.07;;;;;;;7.49;100.00;102370.13;5003406;28;20233;-54
2021/12/15 03:01:25;;;;;;;29.63;19.73;;;;;;;7.52;100.00;102370.25;4999887;28;20224;-54
2021/12/15 03:04:10;;;;;;;28.77;18.27;;;;;;;7.62;100.00;102372.38;5006485;28;20709;-53
2021/12/15 03:06:46;;;;;;;31.03;20.50;;;;;;;7.72;100.00;102367.47;5003611;28;20237;-54
2021/12/15 03:15:15;;;;;;;30.10;20.13;;;;;;;7.67;100.00;102367.31;4999316;28;20656;-55
2021/12/15 03:17:30;;;;;;;31.73;19.63;;;;;;;7.56;100.00;102372.16;4998163;28;20726;-53
2021/12/15 03:19:57;;;;;;;32.13;19.37;;;;;;;7.58;100.00;102362.66;5006552;28;20260;-53
2021/12/15 03:22:24;;;;;;;32.17;20.70;;;;;;;7.70;100.00;102359.59;4997847;28;20315;-55
2021/12/15 03:24:51;;;;;;;30.93;19.77;;;;;;;7.64;100.00;102354.13;5004917;28;20225;-54
2021/12/15 03:27:21;;;;;;;33.63;20.07;;;;;;;7.47;100.00;102358.72;4997179;28;20245;-54
2021/12/15 03:35:33;;;;;;;35.43;20.80;;;;;;;7.45;100.00;102355.19;5005472;28;20306;-57
2021/12/15 03:38:01;;;;;;;31.10;19.37;;;;;;;7.55;100.00;102352.06;5001456;28;20275;-54
2021/12/15 03:40:36;;;;;;;28.73;19.37;;;;;;;7.53;100.00;102350.22;4999436;28;20256;-54
2021/12/15 03:43:06;;;;;;;31.67;18.60;;;;;;;7.50;100.00;102350.09;4998398;28;20283;-55
2021/12/15 03:45:37;;;;;;;29.20;19.97;;;;;;;7.61;100.00;102349.66;5010256;28;20236;-55
2021/12/15 03:48:09;;;;;;;29.23;18.87;;;;;;;7.51;100.00;102341.44;5005968;28;20244;-52
2021/12/15 03:50:36;;;;;;;29.13;19.40;;;;;;;7.48;100.00;102342.22;5008984;28;20285;-54
2021/12/15 03:53:04;;;;;;;30.90;19.50;;;;;;;7.48;100.00;102344.84;5006640;28;20302;-54
2021/12/15 03:55:32;;;;;;;29.60;19.13;;;;;;;7.44;100.00;102348.19;4996867;28;20295;-53
2021/12/15 03:58:00;;;;;;;27.87;18.93;;;;;;;7.46;100.00;102346.50;5006922;28;20279;-53
2021/12/15 04:00:29;;;;;;;31.33;19.60;;;;;;;7.36;100.00;102344.38;5001344;28;20248;-54
2021/12/15 04:02:55;;;;;;;32.53;20.23;;;;;;;7.37;100.00;102354.88;4995545;28;20229;-53
2021/12/15 04:05:23;;;;;;;27.00;18.37;;;;;;;7.47;100.00;102350.88;5005687;28;20245;-53
2021/12/15 04:07:51;;;;;;;31.07;20.23;;;;;;;7.60;100.00;102363.59;5000974;28;20589;-57
2021/12/15 04:10:21;;;;;;;30.73;20.97;;;;;;;7.53;100.00;102356.34;5007821;28;20263;-55
2021/12/15 04:12:48;;;;;;;24.70;17.00;;;;;;;7.50;100.00;102357.94;5003695;28;20268;-53
2021/12/15 04:15:26;;;;;;;31.63;19.43;;;;;;;7.55;100.00;102353.81;4999485;28;20378;-53
2021/12/15 04:17:53;;;;;;;30.67;18.83;;;;;;;7.65;100.00;102353.28;5007402;28;20641;-54
2021/12/15 04:20:22;;;;;;;36.13;20.20;;;;;;;7.62;100.00;102351.47;5006100;28;20260;-55
2021/12/15 04:22:49;;;;;;;29.67;18.43;;;;;;;7.61;100.00;102349.66;5001648;28;20257;-53
2021/12/15 04:25:19;;;;;;;28.90;19.50;;;;;;;7.60;100.00;102353.13;5003597;28;20279;-54
2021/12/15 04:27:54;;;;;;;29.50;18.37;;;;;;;7.64;100.00;102357.63;5002531;28;20258;-54
2021/12/15 04:30:21;;;;;;;25.53;17.67;;;;;;;7.53;100.00;102351.13;5003822;28;20299;-54
2021/12/15 04:32:48;;;;;;;26.73;17.80;;;;;;;7.55;100.00;102344.25;4996408;28;20258;-52
2021/12/15 04:35:15;;;;;;;28.37;17.77;;;;;;;7.61;100.00;102349.66;5004242;28;20773;-54
2021/12/15 04:37:42;;;;;;;30.17;17.83;;;;;;;7.56;100.00;102351.22;5003664;28;20229;-57
2021/12/15 04:40:11;;;;;;;29.27;18.70;;;;;;;7.60;100.00;102358.34;5006386;28;20272;-56
2021/12/15 04:42:38;;;;;;;28.77;19.10;;;;;;;7.67;100.00;102354.25;5003448;28;20304;-55
2021/12/15 04:45:07;;;;;;;24.43;18.00;;;;;;;7.56;100.00;102353.84;5007733;28;20287;-52
2021/12/15 04:47:33;;;;;;;25.73;17.80;;;;;;;7.56;100.00;102356.47;5001344;28;21503;-56
2021/12/15 04:49:59;;;;;;;23.10;15.57;;;;;;;7.50;100.00;102358.84;5003794;28;20256;-55
2021/12/15 04:52:28;;;;;;;26.03;17.07;;;;;;;7.51;100.00;102357.09;5010189;28;20253;-56
2021/12/15 04:54:55;;;;;;;28.43;18.40;;;;;;;7.52;100.00;102365.03;5005890;28;20295;-54
2021/12/15 04:57:23;;;;;;;26.77;16.60;;;;;;;7.55;100.00;102370.38;5002133;28;20230;-58
2021/12/15 04:59:50;;;;;;;23.87;16.93;;;;;;;7.59;100.00;102372.25;5027632;22;20255;-55
2021/12/15 05:02:19;;;;;;;27.70;18.07;;;;;;;7.68;100.00;102376.03;4988568;28;20381;-58
2021/12/15 05:04:47;;;;;;;24.50;16.57;;;;;;;7.69;100.00;102383.03;4980113;28;20241;-54
2021/12/15 05:07:14;;;;;;;26.57;16.97;;;;;;;7.63;100.00;102389.84;4979639;28;20328;-57
2021/12/15 05:09:43;;;;;;;27.43;16.77;;;;;;;7.64;100.00;102386.38;4988814;28;20253;-58
2021/12/15 05:12:10;;;;;;;24.53;16.90;;;;;;;7.55;100.00;102383.44;4979028;28;20276;-56
2021/12/15 05:14:37;;;;;;;23.53;17.20;;;;;;;7.65;100.00;102393.41;4982877;28;20261;-57
2021/12/15 05:17:04;;;;;;;24.43;16.43;;;;;;;7.68;100.00;102402.19;4983620;28;20249;-56
2021/12/15 05:19:32;;;;;;;25.07;16.90;;;;;;;7.65;100.00;102390.81;4978651;28;20759;-57
2021/12/15 05:21:58;;;;;;;28.33;17.80;;;;;;;7.65;100.00;102393.41;4986323;28;20222;-58
2021/12/15 05:24:31;;;;;;;27.43;17.40;;;;;;;7.76;100.00;102395.53;4982727;28;20237;-57
2021/12/15 05:26:59;;;;;;;27.53;18.70;;;;;;;7.80;100.00;102397.44;4979940;28;20222;-57
2021/12/15 05:29:26;;;;;;;27.37;17.57;;;;;;;7.76;100.00;102395.53;4975715;28;20260;-58
2021/12/15 05:31:52;;;;;;;24.40;16.43;;;;;;;7.79;100.00;102395.63;4982802;28;20270;-56
2021/12/15 05:34:20;;;;;;;27.73;17.60;;;;;;;7.76;100.00;102392.94;4979003;28;20238;-56
2021/12/15 05:36:48;;;;;;;27.27;18.23;;;;;;;7.68;100.00;102395.22;4980757;28;20269;-56
2021/12/15 05:39:14;;;;;;;23.67;15.90;;;;;;;7.61;100.00;102396.72;4983526;28;20776;-56
2021/12/15 05:41:40;;;;;;;28.30;18.53;;;;;;;7.75;100.00;102396.34;4984608;28;20237;-56
2021/12/15 05:44:07;;;;;;;27.53;18.93;;;;;;;7.55;100.00;102396.50;4985505;28;20620;-58
2021/12/15 05:46:34;;;;;;;28.97;18.83;;;;;;;7.54;100.00;102399.03;4981814;28;20234;-57
2021/12/15 05:49:00;;;;;;;26.50;18.77;;;;;;;7.50;100.00;102408.50;4980544;28;20292;-56
2021/12/15 05:51:27;;;;;;;31.83;19.23;;;;;;;7.46;100.00;102401.38;4982807;28;20273;-57
2021/12/15 05:53:54;;;;;;;30.53;19.70;;;;;;;7.44;100.00;102402.13;4976445;28;20332;-56
2021/12/15 05:56:21;;;;;;;31.00;19.30;;;;;;;7.48;100.00;102404.94;4982853;28;20784;-57
2021/12/15 05:58:47;;;;;;;27.67;19.13;;;;;;;7.47;100.00;102413.59;4975950;28;20254;-58
2021/12/15 06:01:14;;;;;;;28.90;18.27;;;;;;;7.42;100.00;102407.31;4981771;28;20237;-58
2021/12/15 06:03:41;;;;;;;27.87;18.33;;;;;;;7.48;100.00;102409.28;4984263;28;20296;-57
2021/12/15 06:06:07;;;;;;;28.27;17.53;;;;;;;7.48;100.00;102406.69;4982790;28;20234;-58
2021/12/15 06:08:34;;;;;;;31.27;19.13;;;;;;;7.48;100.00;102402.34;4985063;28;20299;-55
2021/12/15 06:11:02;;;;;;;28.00;17.80;;;;;;;7.58;100.00;102407.09;4986478;28;20237;-55
2021/12/15 06:13:29;;;;;;;28.67;19.33;;;;;;;7.48;100.00;102410.19;4980568;28;20258;-55
2021/12/15 06:15:57;;;;;;;23.33;17.13;;;;;;;7.56;100.00;102413.97;4986397;28;20244;-57
2021/12/15 06:18:24;;;;;;;25.20;17.60;;;;;;;7.59;100.00;102419.31;4979250;28;20234;-56
2021/12/15 06:20:52;;;;;;;25.13;16.60;;;;;;;7.53;100.00;102421.69;4981366;28;20235;-55
2021/12/15 06:23:20;;;;;;;24.97;17.33;;;;;;;7.49;100.00;102416.28;4982121;28;20285;-56
2021/12/15 06:25:51;;;;;;;29.30;18.27;;;;;;;7.53;100.00;102416.47;4975419;28;20246;-55
2021/12/15 06:28:19;;;;;;;30.93;16.73;;;;;;;7.50;100.00;102418.94;4976792;28;20304;-55
2021/12/15 06:30:45;;;;;;;24.40;16.97;;;;;;;7.66;100.00;102425.66;4980579;28;20256;-55
2021/12/15 06:33:12;;;;;;;22.67;16.20;;;;;;;7.62;100.00;102419.44;4975817;28;20236;-56
2021/12/15 06:35:40;;;;;;;29.60;17.73;;;;;;;7.68;100.00;102423.09;4975281;28;20250;-55
2021/12/15 06:38:06;;;;;;;27.33;17.40;;;;;;;7.58;100.00;102425.38;4976852;28;20234;-55
2021/12/15 06:40:33;;;;;;;25.60;15.30;;;;;;;7.67;100.00;102421.31;4972766;28;20238;-55
2021/12/15 06:43:00;;;;;;;23.70;16.13;;;;;;;7.57;100.00;102420.06;4978828;28;20238;-55
2021/12/15 06:45:35;;;;;;;25.90;17.90;;;;;;;7.70;100.00;102421.44;4979821;28;20266;-55
2021/12/15 06:58:57;;;;;;;21.57;15.87;;;;;;;7.65;100.00;102430.00;4982505;28;20244;-57
2021/12/15 07:01:24;;;;;;;22.67;15.80;;;;;;;7.69;100.00;102430.09;4982974;28;20262;-57
2021/12/15 07:03:51;;;;;;;23.97;16.83;;;;;;;7.76;100.00;102432.16;4984279;28;20300;-57
2021/12/15 07:06:17;;;;;;;24.20;15.70;;;;;;;7.69;100.00;102430.09;4975109;28;20234;-55
2021/12/15 07:08:43;;;;;;;23.63;16.57;;;;;;;7.63;100.00;102433.38;4972803;28;20246;-55
2021/12/15 07:11:10;;;;;;;24.00;15.93;;;;;;;7.68;100.00;102433.56;4978494;28;20789;-57
2021/12/15 07:13:38;;;;;;;21.63;14.67;;;;;;;7.66;100.00;102433.50;4979256;28;20265;-54
2021/12/15 07:16:08;;;;;;;18.90;14.90;;;;;;;7.63;100.00;102436.88;4979013;28;20240;-55
2021/12/15 07:18:45;;;;;;;22.83;15.83;;;;;;;7.61;100.00;102443.75;4979644;28;20234;-55
2021/12/15 07:21:17;;;;;;;23.17;15.67;;;;;;;7.69;100.00;102446.72;4977434;28;20291;-56
2021/12/15 07:23:44;;;;;;;20.83;15.20;;;;;;;7.79;100.00;102447.91;4976133;28;20599;-56
2021/12/15 07:26:10;;;;;;;19.73;14.43;;;;;;;7.75;100.00;102451.25;4980224;28;20282;-57
2021/12/15 07:28:37;;;;;;;20.27;15.23;;;;;;;7.71;100.00;102449.38;4974513;28;20359;-56
2021/12/15 07:31:03;;;;;;;20.03;15.60;;;;;;;7.76;100.00;102453.06;4981728;28;20257;-54
2021/12/15 07:33:30;;;;;;;22.93;16.57;;;;;;;7.76;100.00;102453.94;4979737;28;20234;-57
2021/12/15 07:35:59;;;;;;;20.73;13.67;;;;;;;7.83;100.00;102449.84;4977898;28;20264;-53
2021/12/15 07:38:25;;;;;;;20.10;14.57;;;;;;;7.82;100.00;102451.53;4978748;28;20328;-56
2021/12/15 07:40:52;;;;;;;20.30;15.47;;;;;;;7.91;100.00;102451.00;4978450;28;20238;-55
2021/12/15 07:46:05;;;;;;;20.03;15.00;;;;;;;7.79;100.00;102461.91;4976893;28;20241;-56
2021/12/15 07:48:35;;;;;;;21.87;15.33;;;;;;;7.76;100.00;102458.28;4980399;28;20237;-56
2021/12/15 07:51:06;;;;;;;19.17;14.77;;;;;;;7.85;100.00;102451.66;4981405;28;20229;-55
2021/12/15 07:53:32;;;;;;;19.00;14.00;;;;;;;7.81;100.00;102467.19;4979324;28;20783;-56
2021/12/15 07:55:59;;;;;;;20.20;13.47;;;;;;;7.78;100.00;102467.06;4980105;28;20234;-56
2021/12/15 07:58:27;;;;;;;19.90;15.47;;;;;;;7.77;100.00;102460.94;4979915;28;20280;-55
2021/12/15 08:00:55;;;;;;;20.43;13.93;;;;;;;7.87;100.00;102457.84;4972891;28;20245;-55
2021/12/15 08:03:23;;;;;;;18.87;13.10;;;;;;;7.83;100.00;102460.31;4979598;28;20236;-55
2021/12/15 08:05:51;;;;;;;17.70;12.87;;;;;;;7.89;100.00;102463.13;4974227;28;20606;-56
2021/12/15 08:08:19;;;;;;;18.90;13.87;;;;;;;7.95;100.00;102463.38;4977158;28;20339;-55
2021/12/15 08:10:46;;;;;;;17.53;13.13;;;;;;;7.94;100.00;102463.31;4971024;28;20246;-56
2021/12/15 08:13:15;;;;;;;22.73;13.80;;;;;;;7.95;100.00;102467.72;4983999;28;20241;-56
2021/12/15 08:15:41;;;;;;;18.63;13.57;;;;;;;7.91;100.00;102468.44;4968691;28;20240;-55
2021/12/15 08:18:08;;;;;;;18.43;12.13;;;;;;;8.03;100.00;102467.16;4976378;28;20242;-56
2021/12/15 08:20:35;;;;;;;17.57;12.27;;;;;;;7.94;100.00;102479.00;4976452;28;20297;-55
2021/12/15 08:23:02;;;;;;;17.83;12.60;;;;;;;8.04;100.00;102481.16;4981216;28;20226;-56
2021/12/15 08:25:31;;;;;;;14.83;12.07;;;;;;;8.13;100.00;102474.50;4973542;28;20402;-55
2021/12/15 08:27:58;;;;;;;17.07;11.87;;;;;;;8.16;100.00;102486.81;4983670;28;20234;-56
2021/12/15 08:30:27;;;;;;;19.93;14.20;;;;;;;8.10;100.00;102482.22;4978917;28;20230;-56
2021/12/15 08:32:56;;;;;;;17.50;12.33;;;;;;;8.10;100.00;102477.00;4987890;28;20230;-56
2021/12/15 08:35:25;;;;;;;18.30;12.83;;;;;;;8.13;100.00;102490.19;4973747;28;20238;-56
2021/12/15 08:37:52;;;;;;;18.90;13.47;;;;;;;8.10;100.00;102484.84;4982156;28;20265;-56
2021/12/15 08:40:21;;;;;;;16.53;12.10;;;;;;;8.00;100.00;102490.59;4981719;28;20249;-57
2021/12/15 08:42:49;;;;;;;17.90;13.80;;;;;;;8.03;100.00;102485.47;4981339;28;20229;-55
2021/12/15 08:45:16;;;;;;;17.47;13.83;;;;;;;8.01;100.00;102492.38;4977867;28;20261;-55
2021/12/15 08:47:42;;;;;;;19.20;13.63;;;;;;;8.16;100.00;102497.28;4986073;28;20793;-56
2021/12/15 08:50:12;;;;;;;19.57;14.37;;;;;;;8.12;100.00;102487.53;4977415;28;20250;-56
2021/12/15 08:52:39;;;;;;;18.83;14.17;;;;;;;8.12;100.00;102488.44;4985742;28;20707;-55
2021/12/15 08:55:07;;;;;;;24.60;14.23;;;;;;;8.04;100.00;102502.97;4976839;28;20229;-54
2021/12/15 08:57:34;;;;;;;40.37;28.00;;;;;;;8.09;100.00;102498.78;4978870;28;20241;-55
2021/12/15 09:00:01;;;;;;;18.33;13.73;;;;;;;8.11;100.00;102497.13;4980809;28;20297;-55
2021/12/15 09:02:28;;;;;;;17.73;12.83;;;;;;;8.11;100.00;102491.88;4986494;28;20249;-54
2021/12/15 09:04:55;;;;;;;17.53;13.40;;;;;;;8.17;100.00;102495.56;4980056;28;20229;-56
2021/12/15 09:07:21;;;;;;;17.13;12.67;;;;;;;8.24;100.00;102497.56;4973917;28;20325;-57
2021/12/15 09:09:48;;;;;;;24.63;18.07;;;;;;;8.16;100.00;102491.16;4981923;28;20857;-57
2021/12/15 09:12:18;;;;;;;16.50;12.27;;;;;;;8.17;100.00;102495.56;4984837;28;20226;-55
2021/12/15 09:14:45;;;;;;;18.70;12.87;;;;;;;8.37;100.00;102494.56;4981495;28;20235;-54
2021/12/15 09:17:13;;;;;;;19.13;13.90;;;;;;;8.42;100.00;102500.00;4983890;28;20288;-56
2021/12/15 09:19:39;;;;;;;19.17;13.63;;;;;;;8.39;100.00;102494.63;4981799;28;20234;-55
2021/12/15 09:22:06;;;;;;;17.63;12.47;;;;;;;8.37;100.00;102502.41;4982524;28;20661;-56
2021/12/15 09:24:32;;;;;;;19.33;13.70;;;;;;;8.45;100.00;102502.72;4976402;28;20254;-56
2021/12/15 09:26:59;;;;;;;20.07;14.07;;;;;;;8.44;100.00;102498.34;4984938;28;20230;-55
2021/12/15 09:29:25;;;;;;;17.97;12.57;;;;;;;8.44;100.00;102500.94;4977524;28;20296;-56
2021/12/15 09:31:53;;;;;;;19.70;14.03;;;;;;;8.50;100.00;102502.06;4984721;28;20718;-56
2021/12/15 09:34:21;;;;;;;16.33;12.67;;;;;;;8.60;100.00;102511.16;4979667;28;20274;-55
2021/12/15 09:36:49;;;;;;;16.07;11.93;;;;;;;8.48;100.00;102497.59;4975717;28;20230;-54
2021/12/15 09:39:18;;;;;;;19.10;13.47;;;;;;;8.50;100.00;102499.44;4984809;28;20289;-54
2021/12/15 09:41:44;;;;;;;18.40;12.97;;;;;;;8.33;100.00;102500.53;4978047;28;20234;-57
2021/12/15 09:44:14;;;;;;;22.00;13.93;;;;;;;8.28;100.00;102497.75;4981566;28;20253;-56
2021/12/15 09:47:08;;;;;;;19.00;13.23;;;;;;;8.40;100.00;102493.81;4973097;28;20226;-56
2021/12/15 10:02:01;;;;;;;20.30;14.80;;;;;;;8.40;100.00;102489.47;4978715;28;20289;-56
2021/12/15 10:03:47;;;;;;;19.90;15.50;;;;;;;8.50;100.00;102491.59;4979553;28;20327;-57
2021/12/15 10:06:46;;;;;;;18.37;13.73;;;;;;;8.52;100.00;102491.63;4971781;28;20230;-56
2021/12/15 10:12:19;;;;;;;18.10;12.50;;;;;;;8.58;100.00;102474.41;4978507;28;20341;-56
2021/12/15 10:17:44;;;;;;;18.67;14.13;;;;;;;8.53;100.00;102481.25;4977002;28;20249;-55
2021/12/15 10:20:18;;;;;;;22.00;16.43;;;;;;;8.56;100.00;102478.72;4983683;28;20244;-56
2021/12/15 10:22:51;;;;;;;18.40;13.73;;;;;;;8.57;100.00;102477.00;4978069;28;20237;-57
2021/12/15 10:25:20;;;;;;;18.30;13.83;;;;;;;8.67;100.00;102475.56;4981534;28;20242;-56
2021/12/15 10:27:49;;;;;;;15.23;12.33;;;;;;;8.80;100.00;102477.78;4978635;28;20745;-55
2021/12/15 10:30:24;;;;;;;18.00;13.17;;;;;;;8.73;100.00;102476.69;4978784;28;20242;-56
2021/12/15 10:32:55;;;;;;;20.03;14.53;;;;;;;8.79;100.00;102476.00;4977659;28;20359;-55
2021/12/15 10:35:24;;;;;;;16.43;12.53;;;;;;;8.74;100.00;102467.09;4978491;28;20313;-57
2021/12/15 10:38:12;;;;;;;15.80;12.53;;;;;;;8.74;100.00;102468.00;4978746;28;20269;-56
2021/12/15 10:40:41;;;;;;;17.70;12.57;;;;;;;8.78;100.00;102475.13;4979492;28;20284;-56
2021/12/15 10:43:07;;;;;;;15.80;12.37;;;;;;;8.80;100.00;102477.78;4979845;28;20241;-55
2021/12/15 10:45:36;;;;;;;18.53;13.37;;;;;;;8.71;100.00;102477.47;4978574;28;20281;-56
2021/12/15 10:48:03;;;;;;;15.43;12.27;;;;;;;8.70;100.00;102475.69;4982731;28;20234;-56
2021/12/15 10:50:30;;;;;;;16.93;12.27;;;;;;;8.78;100.00;102474.25;4976622;28;20776;-56
2021/12/15 10:52:59;;;;;;;16.80;12.70;;;;;;;8.76;100.00;102473.28;4970381;28;20816;-56
2021/12/15 10:55:32;;;;;;;16.43;11.57;;;;;;;8.83;100.00;102475.28;4977089;28;20704;-55
2021/12/15 10:57:58;;;;;;;16.30;11.40;;;;;;;8.74;100.00;102472.31;4978694;28;20735;-58
2021/12/15 11:00:25;;;;;;;15.00;12.67;;;;;;;8.72;100.00;102474.91;5001114;22;20232;-55
2021/12/15 11:02:51;;;;;;;13.80;11.13;;;;;;;8.76;100.00;102476.78;4991276;28;20233;-55
2021/12/15 11:05:20;;;;;;;14.30;10.97;;;;;;;8.76;100.00;102475.91;4991875;28;20266;-53
2021/12/15 11:07:49;;;;;;;13.80;10.57;;;;;;;8.84;100.00;102480.59;4981714;28;20237;-54
2021/12/15 11:10:17;;;;;;;15.03;11.60;;;;;;;8.88;100.00;102473.72;4991380;28;20241;-54
2021/12/15 11:12:48;;;;;;;14.37;10.67;;;;;;;8.85;100.00;102476.22;4979464;28;20237;-54
2021/12/15 11:15:17;;;;;;;14.17;10.73;;;;;;;8.93;100.00;102482.59;4993013;28;20280;-55
2021/12/15 11:17:45;;;;;;;12.47;9.67;;;;;;;9.03;100.00;102475.94;4989282;28;20233;-54
2021/12/15 11:20:15;;;;;;;13.60;10.87;;;;;;;8.93;100.00;102474.75;4981286;28;20296;-54
2021/12/15 11:22:45;;;;;;;13.47;11.27;;;;;;;8.86;100.00;102477.13;4986217;28;20250;-53
2021/12/15 11:25:17;;;;;;;13.60;10.27;;;;;;;8.90;100.00;102474.63;4984425;28;20326;-54
2021/12/15 11:27:48;;;;;;;14.40;10.93;;;;;;;8.97;100.00;102466.16;4982946;28;20308;-54
2021/12/15 11:30:22;;;;;;;13.00;10.53;;;;;;;8.84;100.00;102470.09;4982783;28;20238;-53
2021/12/15 11:32:51;;;;;;;13.43;10.53;;;;;;;8.79;100.00;102457.69;4985132;28;20922;-54
2021/12/15 11:35:20;;;;;;;12.63;10.33;;;;;;;8.88;100.00;102460.63;4986432;28;20230;-53
2021/12/15 11:38:00;;;;;;;14.23;10.97;;;;;;;8.94;100.00;102460.81;4979258;28;20584;-53
2021/12/15 11:40:34;;;;;;;13.77;10.87;;;;;;;9.00;100.00;102461.00;4976825;28;20234;-53
2021/12/15 11:43:02;;;;;;;11.67;10.00;;;;;;;9.05;100.00;102463.78;4978287;28;20287;-54
2021/12/15 11:45:29;;;;;;;13.13;10.57;;;;;;;9.03;100.00;102461.13;4982155;28;20304;-55
2021/12/15 11:48:18;;;;;;;14.13;10.50;;;;;;;8.98;100.00;102457.44;4980253;28;20226;-53
2021/12/15 11:50:45;;;;;;;15.03;11.07;;;;;;;9.13;100.00;102456.19;4985761;28;20226;-53
2021/12/15 11:53:33;;;;;;;11.43;10.23;;;;;;;9.06;100.00;102458.59;4973950;28;20765;-53
2021/12/15 11:56:17;;;;;;;11.97;8.73;;;;;;;9.03;100.00;102450.63;4978902;28;20264;-54
2021/12/15 11:58:47;;;;;;;14.45;11.90;;;;;;;9.15;100.00;102449.25;4981113;28;20812;-55
2021/12/15 12:01:52;;;;;;;14.03;11.00;;;;;;;9.10;100.00;102440.38;4980185;28;20241;-53
2021/12/15 12:04:35;;;;;;;13.67;9.60;;;;;;;9.12;100.00;102439.56;4954410;28;20234;-53
2021/12/15 12:07:16;;;;;;;11.07;9.13;;;;;;;9.12;100.00;102443.91;4982250;28;20237;-53
2021/12/15 12:09:45;;;;;;;11.13;8.70;;;;;;;9.18;100.00;102418.78;4982901;28;20240;-55
2021/12/15 12:12:12;;;;;;;13.67;9.17;;;;;;;9.20;100.00;102416.25;4982292;28;20751;-54
2021/12/15 12:14:43;;;;;;;12.27;9.20;;;;;;;9.08;100.00;102412.34;4989971;28;20964;-54